Jane, Missouri
Current Conditions -  °F | °C
As of 6:35 PM on Saturday 25 Oct 2014 (Local Time) from KVBT Reporting Station
Clear Clear  
Wind Chill: 24°   Ceiling: Unl
Heat Index: 24°   Visibility: 10mi
Dew Point: 16°   Wind: 3mph
Humidity: 61%   Direction: 240°WSW
Pressure: 30.06"   Gusts: NA
Location:  36.5706°N, 94.342°W
Report Text: KVBT 252335Z AUTO 24003KT 10SM CLR 24/16 A3006 RMK AO1
Loading
Personal Weather Stations






























Interactive Weather Map
Tropical Storm Tracking
New forecast layout! Learn more

10-Day Weather Forecast

Advertisements
Track Severe Weather on mobile